Sonic Adventure (DX): Boss Rankings

Records: Times | Rings | Scores | Races | Bosses | Freestyle
Leaders: Times | Rings | Scores | Races | Bosses | Freestyle | Overall
Rank Player Percent Points Date
1 Sonicspeedruner 98.0% 43 10-15-17
2 Gamepro011 96.5% 76 10-15-17
3 chainchumper 94.2% 126 10-15-17
4 DarkPolarNight 94.0% 131 10-15-17
5 Austinf 91.7% 181 10-15-17
6 Jawzun 89.1% 239 10-15-17
7 drminus 88.4% 254 10-15-17
8 ethmar 86.9% 287 10-15-17
9 Parax 86.5% 296 10-15-17
10 ike6252 85.7% 315 10-15-17
11 Coolfansonic 84.1% 350 10-15-17
12 Dashjump 83.7% 359 10-15-17
13 Avento128bits 83.4% 365 10-15-17
14 DarkspinesSonic 79.9% 443 10-15-17
15 TheRealShadnic 78.2% 479 10-15-17
16 THC98 77.5% 495 10-15-17
17 F-Man 76.0% 529 10-15-17
18 Marth 74.7% 558 10-15-17
19 Mariobutch 73.3% 588 10-15-17
20 yoshifan 73.1% 593 10-15-17
21 InferSaime 72.0% 616 10-15-17
22 PfoSonic 71.5% 627 10-15-17
23 HyperSonic7701 69.5% 671 10-15-17
24 RPGnutter 68.5% 694 10-15-17
25 Paragod 67.3% 720 10-15-17
26 mike89 66.9% 730 10-15-17
27 frankoredstrato 66.5% 739 10-15-17
28 sonicam 62.5% 826 10-15-17
29 Groudon199 62.3% 830 10-15-17
30 SadisticMystic 62.2% 833 10-15-17
31 xXMegaManXx 61.6% 847 10-15-17
32 Stefan 60.8% 863 10-15-17
33 Diamond 59.3% 898 10-15-17
34 Combo 57.3% 942 10-15-17
35 bertin 56.8% 953 10-15-17
36 SkyLights 54.3% 1007 10-15-17
37 Arch 48.8% 1129 10-15-17
38 Fr3nZy 48.3% 1140 10-15-17
39 francisco 48.1% 1145 10-15-17
40 OmegaDJ 46.7% 1176 10-15-17
41 Andrea Ritsu 46.3% 1184 10-15-17
42 Omega Rafael Santos 44.9% 1214 10-15-17
43 P1 Pause 43.9% 1238 10-15-17
44 magnum12 41.5% 1291 10-15-17
45 VeritasDL 41.0% 1302 10-15-17
46 Auriman1 37.7% 1374 10-15-17
47 Dekuboy 37.2% 1384 10-15-17
48 James_Bertolli 35.5% 1423 10-15-17
49 chaos shadow 35.4% 1425 10-15-17
50 Hunters13 34.1% 1453 10-15-17
51 teamblackarms 33.7% 1462 10-15-17
52 FuzZerd 33.0% 1477 10-15-17
53 Drakodan 32.5% 1488 10-15-17
54 Psymar 32.1% 1497 10-15-17
55 Quartz 31.7% 1506 10-15-17
56 Cyan Ryan 31.7% 1507 10-15-17
57 eggFL 31.3% 1515 10-15-17
58 GerbilSoft 30.6% 1531 10-15-17
59 Jerzia 30.5% 1533 10-15-17
60 BigAL49 30.4% 1534 10-15-17
61 elecmouse101 29.8% 1549 10-15-17
62 Thorn 29.4% 1556 10-15-17
62 Webber3000 29.4% 1556 10-15-17
64 Nim 29.4% 1557 10-15-17
65 videogamemaster777 29.2% 1562 10-15-17
66 Mo Player Banned 28.0% 1588 10-15-17
67 Turbos 27.7% 1594 10-15-17
68 Termon 26.9% 1613 10-15-17
69 Dave Cramer 25.9% 1634 10-15-17
70 Flying Fox 25.7% 1639 10-15-17
71 nuckrieg 24.6% 1662 10-15-17
72 buddychaos0415 24.6% 1664 10-15-17
73 Shadow Jacky 23.5% 1688 10-15-17
74 Cream147 21.2% 1739 10-15-17
75 supersonicfan 20.8% 1746 10-15-17
76 MiStEr_ShAoLiN 20.6% 1752 10-15-17
77 NintenDan 20.5% 1753 10-15-17
78 thewaytodawnnn 20.5% 1754 10-15-17
79 Aitamen 20.0% 1764 10-15-17
79 itsPersonnal 20.0% 1764 10-15-17
81 The T 19.8% 1770 10-15-17
82 Cybrax 19.7% 1771 10-15-17
83 supersonic465 19.6% 1774 10-15-17
84 SonicWinDX 19.3% 1780 10-15-17
85 Cruizer 18.5% 1798 10-15-17
86 VMU Player Banned 17.3% 1823 10-15-17
87 Game_Complete 16.9% 1832 10-15-17
88 The Great Lord Mick 16.7% 1838 10-15-17
89 GreatStar 15.4% 1865 10-15-17
90 Questionguy555 15.4% 1866 10-15-17
91 Spinballwizard 15.0% 1875 10-15-17
92 Sondow 14.2% 1893 10-15-17
93 sonicandamy Player Banned 14.0% 1897 10-15-17
94 Destroyer121121 13.6% 1906 10-15-17
95 GarnetPrincess 13.1% 1917 10-15-17
96 SonicAD 12.0% 1942 10-15-17
97 Don 11.2% 1959 10-15-17
98 Miles9999 11.0% 1964 10-15-17
99 SuperBlitzCraig 10.8% 1968 10-15-17
100 Siavash Tazari 10.6% 1971 10-15-17
101 Psyknux 10.0% 1986 10-15-17
102 Cutiefox 9.8% 1990 10-15-17
103 Werey 9.6% 1995 10-15-17
104 knuckles_sonic8 9.5% 1996 10-15-17
105 joecoolgames 9.4% 1999 10-15-17
106 mauserman 9.0% 2008 10-15-17
107 Badlex727 8.8% 2011 10-15-17
108 EngiNerd 8.6% 2017 10-15-17
108 Sonic Singularity 8.6% 2017 10-15-17
110 dShadow 8.3% 2022 10-15-17
111 Hipertails12 8.2% 2025 10-15-17
112 N 8.1% 2028 10-15-17
113 Aiko 8.0% 2029 10-15-17
114 Shanekilz 7.9% 2032 10-15-17
115 Therio 7.5% 2041 10-15-17
116 Mastakirby 7.3% 2044 10-15-17
117 TommyeAsY 6.8% 2055 10-15-17
118 TheChaosEmeraIds 6.7% 2058 10-15-17
119 FocusSight64 6.7% 2059 10-15-17
119 sonic29887 6.7% 2059 10-15-17
121 Chao_Fan 6.2% 2069 10-15-17
122 djmat 6.0% 2073 10-15-17
123 paulie9990 5.8% 2078 10-15-17
124 HHNNBBHHN 5.7% 2079 10-15-17
124 tal39h 5.7% 2079 10-15-17
126 Sogeking 5.2% 2091 10-15-17
127 Brian_pso 4.8% 2099 10-15-17
128 Chawkk 4.8% 2100 10-15-17
129 MK 4.5% 2107 10-15-17
130 SpinDashMaster 4.4% 2108 10-15-17
131 SilvertheAlmighty 4.4% 2109 10-15-17
132 MastaToken 4.0% 2117 10-15-17
133 Sonique Hedgehog 3.8% 2121 10-15-17
133 SpiritDragon1995 3.8% 2121 10-15-17
135 KinkyCadence 3.5% 2129 10-15-17
136 PsyBorg 3.3% 2132 10-15-17
137 Mad Andy 3.3% 2133 10-15-17
138 FSSRandomvids 3.2% 2135 10-15-17
139 JamminX42 2.9% 2142 10-15-17
140 koinu93 2.8% 2143 10-15-17
141 Rolken 2.8% 2145 10-15-17
141 Xia 2.8% 2145 10-15-17
143 andres430 2.5% 2151 10-15-17
144 dabestgamer 2.1% 2159 10-15-17
144 shadowblast63 Player Banned 2.1% 2159 10-15-17
146 crazy1993 2.1% 2160 10-15-17
147 Illidan 1.9% 2164 10-15-17
148 Richied 1.9% 2165 10-15-17
149 gamer1245 1.7% 2168 10-15-17
150 DanielTheFalcon 1.7% 2169 10-15-17
151 Iwannabelink 1.6% 2171 10-15-17
152 niscool 1.3% 2177 10-15-17
152 oTaiIilLsS 1.3% 2177 10-15-17
154 soniccoloursunleashed 1.3% 2178 10-15-17
155 ieatatsonic 1.0% 2183 10-15-17
155 Redd 1.0% 2183 10-15-17
157 Lil_Dude 0.8% 2189 10-15-17
157 LinksDarkArrows 0.8% 2189 10-15-17
159 Cbwade15 0.4% 2197 10-15-17
160 neaolas 0.4% 2198 10-15-17
161 BlankTH 0.2% 2202 10-15-17
162 Heroes_Hater 0.1% 2203 10-15-17
163 S-MS32X-S 0.0% 2205 10-15-17
164 KaM Mark MaK 0.0% 2207 10-15-17
164 MegabombBlade 0.0% 2207 10-15-17

This page is using the New Data Table System. [FUTURE]

Game ID: 3 | Category ID: 6
Hits: 4,718 | Hits This Month: 16 | DB Calls: 24 | Mem Usage: 5.36 MB | Time: 0.17s | Printable

The Sonic Center v3.9
Copyright 2003-2011 by The Sonic Center Team.